sensor_id;sensor_type;location;lat;lon;timestamp;temperature;humidity
20750;DHT22;10535;50.664;4.564;2024-03-29T00:01:30;9.90;99.90
20750;DHT22;10535;50.664;4.564;2024-03-29T00:03:56;10.00;99.90
20750;DHT22;10535;50.664;4.564;2024-03-29T00:06:22;10.00;99.90
20750;DHT22;10535;50.664;4.564;2024-03-29T00:08:47;10.00;99.90
20750;DHT22;10535;50.664;4.564;2024-03-29T00:11:13;10.00;99.90
20750;DHT22;10535;50.664;4.564;2024-03-29T00:13:39;9.90;99.90
20750;DHT22;10535;50.664;4.564;2024-03-29T00:16:05;9.90;99.90
20750;DHT22;10535;50.664;4.564;2024-03-29T00:18:31;9.90;99.90
20750;DHT22;10535;50.664;4.564;2024-03-29T00:20:57;10.10;99.90
20750;DHT22;10535;50.664;4.564;2024-03-29T00:23:22;10.10;99.90
20750;DHT22;10535;50.664;4.564;2024-03-29T00:25:48;10.20;99.90
20750;DHT22;10535;50.664;4.564;2024-03-29T00:28:14;10.20;99.90
20750;DHT22;10535;50.664;4.564;2024-03-29T00:30:40;10.30;99.90
20750;DHT22;10535;50.664;4.564;2024-03-29T00:33:05;10.40;99.90
20750;DHT22;10535;50.664;4.564;2024-03-29T00:35:31;10.40;99.90
20750;DHT22;10535;50.664;4.564;2024-03-29T00:37:56;10.30;99.90
20750;DHT22;10535;50.664;4.564;2024-03-29T00:40:22;10.40;99.90
20750;DHT22;10535;50.664;4.564;2024-03-29T00:42:48;10.40;99.90
20750;DHT22;10535;50.664;4.564;2024-03-29T00:45:13;10.40;99.90
20750;DHT22;10535;50.664;4.564;2024-03-29T00:47:39;10.40;99.90
20750;DHT22;10535;50.664;4.564;2024-03-29T00:50:05;10.50;99.90
20750;DHT22;10535;50.664;4.564;2024-03-29T00:52:30;10.50;99.90
20750;DHT22;10535;50.664;4.564;2024-03-29T00:54:56;10.60;99.90
20750;DHT22;10535;50.664;4.564;2024-03-29T00:57:22;10.60;99.90
20750;DHT22;10535;50.664;4.564;2024-03-29T00:59:47;10.60;99.90
20750;DHT22;10535;50.664;4.564;2024-03-29T01:02:13;10.50;99.90
20750;DHT22;10535;50.664;4.564;2024-03-29T01:04:38;10.50;99.90
20750;DHT22;10535;50.664;4.564;2024-03-29T01:07:06;10.40;99.90
20750;DHT22;10535;50.664;4.564;2024-03-29T01:09:31;10.40;99.90
20750;DHT22;10535;50.664;4.564;2024-03-29T01:11:58;10.50;99.90
20750;DHT22;10535;50.664;4.564;2024-03-29T01:14:24;10.50;99.90
20750;DHT22;10535;50.664;4.564;2024-03-29T01:16:49;10.50;99.90
20750;DHT22;10535;50.664;4.564;2024-03-29T01:19:15;10.40;99.90
20750;DHT22;10535;50.664;4.564;2024-03-29T01:21:40;10.40;99.90
20750;DHT22;10535;50.664;4.564;2024-03-29T01:24:06;10.30;99.90
20750;DHT22;10535;50.664;4.564;2024-03-29T01:26:32;10.10;99.90
20750;DHT22;10535;50.664;4.564;2024-03-29T01:28:57;10.10;99.90
20750;DHT22;10535;50.664;4.564;2024-03-29T01:31:23;9.90;99.90
20750;DHT22;10535;50.664;4.564;2024-03-29T01:33:50;9.80;99.90
20750;DHT22;10535;50.664;4.564;2024-03-29T01:36:15;9.80;99.90
20750;DHT22;10535;50.664;4.564;2024-03-29T01:38:41;9.70;99.90
20750;DHT22;10535;50.664;4.564;2024-03-29T01:41:07;9.70;99.90
20750;DHT22;10535;50.664;4.564;2024-03-29T01:43:33;9.70;99.90
20750;DHT22;10535;50.664;4.564;2024-03-29T01:45:59;9.70;99.90
20750;DHT22;10535;50.664;4.564;2024-03-29T01:48:25;9.50;99.90
20750;DHT22;10535;50.664;4.564;2024-03-29T01:50:54;9.50;99.90
20750;DHT22;10535;50.664;4.564;2024-03-29T01:53:22;9.30;99.90
20750;DHT22;10535;50.664;4.564;2024-03-29T01:55:48;9.30;99.90
20750;DHT22;10535;50.664;4.564;2024-03-29T01:58:14;9.50;99.90
20750;DHT22;10535;50.664;4.564;2024-03-29T02:00:44;9.50;99.90
20750;DHT22;10535;50.664;4.564;2024-03-29T02:03:14;9.50;99.90
20750;DHT22;10535;50.664;4.564;2024-03-29T02:05:41;9.40;99.90
20750;DHT22;10535;50.664;4.564;2024-03-29T02:08:08;9.50;99.90
20750;DHT22;10535;50.664;4.564;2024-03-29T02:10:35;9.50;99.90
20750;DHT22;10535;50.664;4.564;2024-03-29T02:13:02;9.50;99.90
20750;DHT22;10535;50.664;4.564;2024-03-29T02:15:29;9.50;99.90
20750;DHT22;10535;50.664;4.564;2024-03-29T02:17:54;9.30;99.90
20750;DHT22;10535;50.664;4.564;2024-03-29T02:20:20;9.30;99.90
20750;DHT22;10535;50.664;4.564;2024-03-29T02:22:54;9.30;99.90
20750;DHT22;10535;50.664;4.564;2024-03-29T02:25:20;9.20;99.90
20750;DHT22;10535;50.664;4.564;2024-03-29T02:27:47;9.40;99.90
20750;DHT22;10535;50.664;4.564;2024-03-29T02:30:19;9.30;99.90
20750;DHT22;10535;50.664;4.564;2024-03-29T02:32:45;9.30;99.90
20750;DHT22;10535;50.664;4.564;2024-03-29T02:35:11;9.30;99.90
20750;DHT22;10535;50.664;4.564;2024-03-29T02:37:37;9.30;99.90
20750;DHT22;10535;50.664;4.564;2024-03-29T02:40:04;9.20;99.90
20750;DHT22;10535;50.664;4.564;2024-03-29T02:42:30;9.00;99.90
20750;DHT22;10535;50.664;4.564;2024-03-29T02:44:56;9.10;99.90
20750;DHT22;10535;50.664;4.564;2024-03-29T02:47:22;9.20;99.90
20750;DHT22;10535;50.664;4.564;2024-03-29T02:49:48;9.20;99.90
20750;DHT22;10535;50.664;4.564;2024-03-29T02:52:14;9.00;99.90
20750;DHT22;10535;50.664;4.564;2024-03-29T02:54:43;9.10;99.90
20750;DHT22;10535;50.664;4.564;2024-03-29T02:57:09;8.90;99.90
20750;DHT22;10535;50.664;4.564;2024-03-29T02:59:34;8.90;99.90
20750;DHT22;10535;50.664;4.564;2024-03-29T03:02:00;9.00;99.90
20750;DHT22;10535;50.664;4.564;2024-03-29T03:04:26;9.00;99.90
20750;DHT22;10535;50.664;4.564;2024-03-29T03:06:52;9.10;99.90
20750;DHT22;10535;50.664;4.564;2024-03-29T03:09:17;9.00;99.90
20750;DHT22;10535;50.664;4.564;2024-03-29T03:12:01;9.00;99.90
20750;DHT22;10535;50.664;4.564;2024-03-29T03:14:27;9.00;99.90
20750;DHT22;10535;50.664;4.564;2024-03-29T03:16:53;8.80;99.90
20750;DHT22;10535;50.664;4.564;2024-03-29T03:19:18;8.70;99.90
20750;DHT22;10535;50.664;4.564;2024-03-29T03:21:44;8.70;99.90
20750;DHT22;10535;50.664;4.564;2024-03-29T03:24:10;8.70;99.90
20750;DHT22;10535;50.664;4.564;2024-03-29T03:26:37;8.80;99.90
20750;DHT22;10535;50.664;4.564;2024-03-29T03:29:03;8.80;99.90
20750;DHT22;10535;50.664;4.564;2024-03-29T03:31:28;8.70;99.90
20750;DHT22;10535;50.664;4.564;2024-03-29T03:33:54;8.60;99.90
20750;DHT22;10535;50.664;4.564;2024-03-29T03:36:19;8.50;99.90
20750;DHT22;10535;50.664;4.564;2024-03-29T03:38:45;8.50;99.90
20750;DHT22;10535;50.664;4.564;2024-03-29T03:41:11;8.50;99.90
20750;DHT22;10535;50.664;4.564;2024-03-29T03:43:36;8.50;99.90
20750;DHT22;10535;50.664;4.564;2024-03-29T03:46:02;8.50;99.90
20750;DHT22;10535;50.664;4.564;2024-03-29T03:48:28;8.50;99.90
20750;DHT22;10535;50.664;4.564;2024-03-29T03:50:57;8.40;99.90
20750;DHT22;10535;50.664;4.564;2024-03-29T03:53:22;8.60;99.90
20750;DHT22;10535;50.664;4.564;2024-03-29T03:55:48;8.60;99.90
20750;DHT22;10535;50.664;4.564;2024-03-29T03:58:14;8.50;99.90
20750;DHT22;10535;50.664;4.564;2024-03-29T04:00:40;8.60;99.90
20750;DHT22;10535;50.664;4.564;2024-03-29T04:03:05;8.70;99.90
20750;DHT22;10535;50.664;4.564;2024-03-29T04:05:32;8.80;99.90
20750;DHT22;10535;50.664;4.564;2024-03-29T04:07:58;8.80;99.90
20750;DHT22;10535;50.664;4.564;2024-03-29T04:10:24;8.90;99.90
20750;DHT22;10535;50.664;4.564;2024-03-29T04:12:52;8.80;99.90
20750;DHT22;10535;50.664;4.564;2024-03-29T04:15:18;8.80;99.90
20750;DHT22;10535;50.664;4.564;2024-03-29T04:17:44;8.70;99.90
20750;DHT22;10535;50.664;4.564;2024-03-29T04:20:09;8.70;99.90
20750;DHT22;10535;50.664;4.564;2024-03-29T04:22:35;8.80;99.90
20750;DHT22;10535;50.664;4.564;2024-03-29T04:25:01;8.80;99.90
20750;DHT22;10535;50.664;4.564;2024-03-29T04:27:26;8.80;99.90
20750;DHT22;10535;50.664;4.564;2024-03-29T04:29:53;8.80;99.90
20750;DHT22;10535;50.664;4.564;2024-03-29T04:32:19;8.80;99.90
20750;DHT22;10535;50.664;4.564;2024-03-29T04:34:52;8.80;99.90
20750;DHT22;10535;50.664;4.564;2024-03-29T04:37:18;8.80;99.90
20750;DHT22;10535;50.664;4.564;2024-03-29T04:39:44;8.80;99.90
20750;DHT22;10535;50.664;4.564;2024-03-29T04:42:11;8.80;99.90
20750;DHT22;10535;50.664;4.564;2024-03-29T04:44:37;8.70;99.90
20750;DHT22;10535;50.664;4.564;2024-03-29T04:47:02;8.60;99.90
20750;DHT22;10535;50.664;4.564;2024-03-29T04:49:28;8.60;99.90
20750;DHT22;10535;50.664;4.564;2024-03-29T04:52:00;8.60;99.90
20750;DHT22;10535;50.664;4.564;2024-03-29T04:54:26;8.50;99.90
20750;DHT22;10535;50.664;4.564;2024-03-29T04:56:53;8.50;99.90
20750;DHT22;10535;50.664;4.564;2024-03-29T04:59:19;8.50;99.90
20750;DHT22;10535;50.664;4.564;2024-03-29T05:01:46;8.60;99.90
20750;DHT22;10535;50.664;4.564;2024-03-29T05:04:16;8.60;99.90
20750;DHT22;10535;50.664;4.564;2024-03-29T05:06:47;8.60;99.90
20750;DHT22;10535;50.664;4.564;2024-03-29T05:09:12;8.70;99.90
20750;DHT22;10535;50.664;4.564;2024-03-29T05:11:38;8.70;99.90
20750;DHT22;10535;50.664;4.564;2024-03-29T05:14:03;8.70;99.90
20750;DHT22;10535;50.664;4.564;2024-03-29T05:16:29;8.90;99.90
20750;DHT22;10535;50.664;4.564;2024-03-29T05:18:55;8.80;99.90
20750;DHT22;10535;50.664;4.564;2024-03-29T05:21:20;8.70;99.90
20750;DHT22;10535;50.664;4.564;2024-03-29T05:23:46;8.60;99.90
20750;DHT22;10535;50.664;4.564;2024-03-29T05:26:12;8.60;99.90
20750;DHT22;10535;50.664;4.564;2024-03-29T05:28:37;8.50;99.90
20750;DHT22;10535;50.664;4.564;2024-03-29T05:31:14;8.60;99.90
20750;DHT22;10535;50.664;4.564;2024-03-29T05:33:43;8.60;99.90
20750;DHT22;10535;50.664;4.564;2024-03-29T05:36:09;8.70;99.90
20750;DHT22;10535;50.664;4.564;2024-03-29T05:38:37;8.70;99.90
20750;DHT22;10535;50.664;4.564;2024-03-29T05:41:03;8.70;99.90
20750;DHT22;10535;50.664;4.564;2024-03-29T05:43:29;8.70;99.90
20750;DHT22;10535;50.664;4.564;2024-03-29T05:45:54;8.70;99.90
20750;DHT22;10535;50.664;4.564;2024-03-29T05:48:20;8.70;99.90
20750;DHT22;10535;50.664;4.564;2024-03-29T05:50:46;8.80;99.90
20750;DHT22;10535;50.664;4.564;2024-03-29T05:53:11;9.00;99.90
20750;DHT22;10535;50.664;4.564;2024-03-29T05:55:37;9.00;99.90
20750;DHT22;10535;50.664;4.564;2024-03-29T05:58:03;9.00;99.90
20750;DHT22;10535;50.664;4.564;2024-03-29T06:00:34;9.10;99.90
20750;DHT22;10535;50.664;4.564;2024-03-29T06:03:00;9.00;99.90
20750;DHT22;10535;50.664;4.564;2024-03-29T06:05:29;8.90;99.90
20750;DHT22;10535;50.664;4.564;2024-03-29T06:07:55;8.90;99.90
20750;DHT22;10535;50.664;4.564;2024-03-29T06:10:21;9.00;99.90
20750;DHT22;10535;50.664;4.564;2024-03-29T06:12:46;9.10;99.90
20750;DHT22;10535;50.664;4.564;2024-03-29T06:15:12;9.10;99.90
20750;DHT22;10535;50.664;4.564;2024-03-29T06:17:56;9.20;99.90
20750;DHT22;10535;50.664;4.564;2024-03-29T06:20:23;9.20;99.90
20750;DHT22;10535;50.664;4.564;2024-03-29T06:22:49;9.10;99.90
20750;DHT22;10535;50.664;4.564;2024-03-29T06:25:15;9.20;99.90
20750;DHT22;10535;50.664;4.564;2024-03-29T06:27:41;9.10;99.90
20750;DHT22;10535;50.664;4.564;2024-03-29T06:30:09;9.00;99.90
20750;DHT22;10535;50.664;4.564;2024-03-29T06:32:35;9.10;99.90
20750;DHT22;10535;50.664;4.564;2024-03-29T06:35:01;9.30;99.90
20750;DHT22;10535;50.664;4.564;2024-03-29T06:37:28;9.60;99.90
20750;DHT22;10535;50.664;4.564;2024-03-29T06:39:54;9.60;99.90
20750;DHT22;10535;50.664;4.564;2024-03-29T06:42:20;9.60;99.90
20750;DHT22;10535;50.664;4.564;2024-03-29T06:44:46;9.60;99.90
20750;DHT22;10535;50.664;4.564;2024-03-29T06:47:11;9.70;99.90
20750;DHT22;10535;50.664;4.564;2024-03-29T06:49:37;9.90;99.90
20750;DHT22;10535;50.664;4.564;2024-03-29T06:52:03;10.00;99.90
20750;DHT22;10535;50.664;4.564;2024-03-29T06:54:29;10.10;99.90
20750;DHT22;10535;50.664;4.564;2024-03-29T06:56:55;9.90;99.90
20750;DHT22;10535;50.664;4.564;2024-03-29T06:59:21;10.20;99.90
20750;DHT22;10535;50.664;4.564;2024-03-29T07:01:47;10.30;99.90
20750;DHT22;10535;50.664;4.564;2024-03-29T07:04:13;10.30;99.90
20750;DHT22;10535;50.664;4.564;2024-03-29T07:06:39;10.20;99.90
20750;DHT22;10535;50.664;4.564;2024-03-29T07:09:07;10.30;99.90
20750;DHT22;10535;50.664;4.564;2024-03-29T07:11:35;10.60;99.90
20750;DHT22;10535;50.664;4.564;2024-03-29T07:14:00;11.00;99.90
20750;DHT22;10535;50.664;4.564;2024-03-29T07:16:26;11.00;99.90
20750;DHT22;10535;50.664;4.564;2024-03-29T07:18:52;11.20;99.90
20750;DHT22;10535;50.664;4.564;2024-03-29T07:21:17;11.40;99.90
20750;DHT22;10535;50.664;4.564;2024-03-29T07:23:43;11.50;99.90
20750;DHT22;10535;50.664;4.564;2024-03-29T07:26:09;11.40;99.90
20750;DHT22;10535;50.664;4.564;2024-03-29T07:28:36;11.30;99.90
20750;DHT22;10535;50.664;4.564;2024-03-29T07:31:06;11.20;99.90
20750;DHT22;10535;50.664;4.564;2024-03-29T07:33:32;11.00;99.90
20750;DHT22;10535;50.664;4.564;2024-03-29T07:35:58;11.00;99.90
20750;DHT22;10535;50.664;4.564;2024-03-29T07:38:24;10.90;99.90
20750;DHT22;10535;50.664;4.564;2024-03-29T07:40:50;11.00;99.90
20750;DHT22;10535;50.664;4.564;2024-03-29T07:43:17;11.00;99.90
20750;DHT22;10535;50.664;4.564;2024-03-29T07:45:43;11.10;99.90
20750;DHT22;10535;50.664;4.564;2024-03-29T07:48:13;11.10;99.90
20750;DHT22;10535;50.664;4.564;2024-03-29T07:50:43;11.20;99.90
20750;DHT22;10535;50.664;4.564;2024-03-29T07:53:09;11.10;99.90
20750;DHT22;10535;50.664;4.564;2024-03-29T07:55:39;11.20;99.90
20750;DHT22;10535;50.664;4.564;2024-03-29T07:58:05;11.20;99.90
20750;DHT22;10535;50.664;4.564;2024-03-29T08:00:32;11.10;99.90
20750;DHT22;10535;50.664;4.564;2024-03-29T08:03:00;11.20;99.90
20750;DHT22;10535;50.664;4.564;2024-03-29T08:05:29;11.30;99.90
20750;DHT22;10535;50.664;4.564;2024-03-29T08:07:55;11.50;99.90
20750;DHT22;10535;50.664;4.564;2024-03-29T08:10:20;11.60;99.90
20750;DHT22;10535;50.664;4.564;2024-03-29T08:12:46;11.60;99.90
20750;DHT22;10535;50.664;4.564;2024-03-29T08:15:12;11.50;99.90
20750;DHT22;10535;50.664;4.564;2024-03-29T08:17:37;11.40;99.90
20750;DHT22;10535;50.664;4.564;2024-03-29T08:20:04;11.50;99.90
20750;DHT22;10535;50.664;4.564;2024-03-29T08:22:30;11.60;99.90
20750;DHT22;10535;50.664;4.564;2024-03-29T08:24:58;11.60;99.90
20750;DHT22;10535;50.664;4.564;2024-03-29T08:27:25;11.50;99.90
20750;DHT22;10535;50.664;4.564;2024-03-29T08:29:50;11.80;99.90
20750;DHT22;10535;50.664;4.564;2024-03-29T08:32:16;11.90;99.90
20750;DHT22;10535;50.664;4.564;2024-03-29T08:34:41;12.00;99.90
20750;DHT22;10535;50.664;4.564;2024-03-29T08:37:07;12.10;99.90
20750;DHT22;10535;50.664;4.564;2024-03-29T08:39:33;12.30;99.90
20750;DHT22;10535;50.664;4.564;2024-03-29T08:41:59;12.40;99.90
20750;DHT22;10535;50.664;4.564;2024-03-29T08:44:28;12.60;99.90
20750;DHT22;10535;50.664;4.564;2024-03-29T08:46:53;12.60;99.90
20750;DHT22;10535;50.664;4.564;2024-03-29T08:49:22;12.70;99.90
20750;DHT22;10535;50.664;4.564;2024-03-29T08:51:48;12.80;99.90
20750;DHT22;10535;50.664;4.564;2024-03-29T08:54:13;13.00;99.90
20750;DHT22;10535;50.664;4.564;2024-03-29T08:56:39;13.10;99.90
20750;DHT22;10535;50.664;4.564;2024-03-29T08:59:06;13.40;99.90
20750;DHT22;10535;50.664;4.564;2024-03-29T09:01:44;13.40;99.90
20750;DHT22;10535;50.664;4.564;2024-03-29T09:04:10;13.40;99.90
20750;DHT22;10535;50.664;4.564;2024-03-29T09:06:37;13.80;99.90
20750;DHT22;10535;50.664;4.564;2024-03-29T09:09:04;13.90;99.90
20750;DHT22;10535;50.664;4.564;2024-03-29T09:11:30;13.90;99.90
20750;DHT22;10535;50.664;4.564;2024-03-29T09:13:56;13.90;99.90
20750;DHT22;10535;50.664;4.564;2024-03-29T09:16:27;13.90;99.90
20750;DHT22;10535;50.664;4.564;2024-03-29T09:18:54;13.80;99.90
20750;DHT22;10535;50.664;4.564;2024-03-29T09:21:20;13.60;99.90
20750;DHT22;10535;50.664;4.564;2024-03-29T09:23:46;13.50;99.90
20750;DHT22;10535;50.664;4.564;2024-03-29T09:26:14;13.70;99.90
20750;DHT22;10535;50.664;4.564;2024-03-29T09:28:40;14.00;99.90
20750;DHT22;10535;50.664;4.564;2024-03-29T09:31:06;14.30;99.90
20750;DHT22;10535;50.664;4.564;2024-03-29T09:33:32;14.70;99.90
20750;DHT22;10535;50.664;4.564;2024-03-29T09:35:58;14.80;99.90
20750;DHT22;10535;50.664;4.564;2024-03-29T09:38:25;14.90;99.90
20750;DHT22;10535;50.664;4.564;2024-03-29T09:41:15;15.10;99.90
20750;DHT22;10535;50.664;4.564;2024-03-29T09:43:45;15.70;99.90
20750;DHT22;10535;50.664;4.564;2024-03-29T09:46:15;15.60;99.90
20750;DHT22;10535;50.664;4.564;2024-03-29T09:48:42;15.80;99.90
20750;DHT22;10535;50.664;4.564;2024-03-29T09:51:11;15.80;99.90
20750;DHT22;10535;50.664;4.564;2024-03-29T09:53:42;15.70;99.90
20750;DHT22;10535;50.664;4.564;2024-03-29T09:56:09;15.40;99.90
20750;DHT22;10535;50.664;4.564;2024-03-29T09:58:37;14.90;99.90
20750;DHT22;10535;50.664;4.564;2024-03-29T10:01:03;14.80;99.90
20750;DHT22;10535;50.664;4.564;2024-03-29T10:03:31;15.00;99.90
20750;DHT22;10535;50.664;4.564;2024-03-29T10:05:57;14.70;99.90
20750;DHT22;10535;50.664;4.564;2024-03-29T10:08:29;14.70;99.90
20750;DHT22;10535;50.664;4.564;2024-03-29T10:10:59;14.90;99.90
20750;DHT22;10535;50.664;4.564;2024-03-29T10:13:28;15.10;99.90
20750;DHT22;10535;50.664;4.564;2024-03-29T10:16:20;15.30;99.90
20750;DHT22;10535;50.664;4.564;2024-03-29T10:19:26;15.50;99.90
20750;DHT22;10535;50.664;4.564;2024-03-29T10:21:53;15.60;99.90
20750;DHT22;10535;50.664;4.564;2024-03-29T10:24:19;15.80;99.90
20750;DHT22;10535;50.664;4.564;2024-03-29T10:26:46;16.20;99.90
20750;DHT22;10535;50.664;4.564;2024-03-29T10:29:13;16.40;99.90
20750;DHT22;10535;50.664;4.564;2024-03-29T10:31:39;16.30;99.90
20750;DHT22;10535;50.664;4.564;2024-03-29T10:34:04;16.10;99.90
20750;DHT22;10535;50.664;4.564;2024-03-29T10:36:34;16.30;99.90
20750;DHT22;10535;50.664;4.564;2024-03-29T10:39:09;16.30;99.90
20750;DHT22;10535;50.664;4.564;2024-03-29T10:41:43;15.90;99.90
20750;DHT22;10535;50.664;4.564;2024-03-29T10:44:09;15.60;99.90
20750;DHT22;10535;50.664;4.564;2024-03-29T10:46:37;15.70;99.90
20750;DHT22;10535;50.664;4.564;2024-03-29T10:49:08;15.90;99.90
20750;DHT22;10535;50.664;4.564;2024-03-29T10:51:38;16.00;99.90
20750;DHT22;10535;50.664;4.564;2024-03-29T10:54:05;16.00;99.90
20750;DHT22;10535;50.664;4.564;2024-03-29T10:56:32;15.60;99.90
20750;DHT22;10535;50.664;4.564;2024-03-29T10:59:05;15.40;99.90
20750;DHT22;10535;50.664;4.564;2024-03-29T11:01:32;15.30;99.90
20750;DHT22;10535;50.664;4.564;2024-03-29T11:04:06;15.50;99.90
20750;DHT22;10535;50.664;4.564;2024-03-29T11:06:36;15.50;99.90
20750;DHT22;10535;50.664;4.564;2024-03-29T11:09:07;15.60;99.90
20750;DHT22;10535;50.664;4.564;2024-03-29T11:11:36;15.70;99.90
20750;DHT22;10535;50.664;4.564;2024-03-29T11:14:11;15.70;99.90
20750;DHT22;10535;50.664;4.564;2024-03-29T11:16:40;15.60;99.90
20750;DHT22;10535;50.664;4.564;2024-03-29T11:19:13;15.30;99.90
20750;DHT22;10535;50.664;4.564;2024-03-29T11:21:40;15.10;99.90
20750;DHT22;10535;50.664;4.564;2024-03-29T11:24:08;15.00;99.90
20750;DHT22;10535;50.664;4.564;2024-03-29T11:26:35;15.20;99.90
20750;DHT22;10535;50.664;4.564;2024-03-29T11:29:00;15.40;99.90
20750;DHT22;10535;50.664;4.564;2024-03-29T11:31:27;15.60;99.90
20750;DHT22;10535;50.664;4.564;2024-03-29T11:33:57;15.70;99.90
20750;DHT22;10535;50.664;4.564;2024-03-29T11:36:24;15.80;99.90
20750;DHT22;10535;50.664;4.564;2024-03-29T11:38:51;15.70;99.90
20750;DHT22;10535;50.664;4.564;2024-03-29T11:41:22;15.90;99.90
20750;DHT22;10535;50.664;4.564;2024-03-29T11:43:55;16.00;99.90
20750;DHT22;10535;50.664;4.564;2024-03-29T11:46:22;16.10;99.90
20750;DHT22;10535;50.664;4.564;2024-03-29T11:48:48;16.20;99.90
20750;DHT22;10535;50.664;4.564;2024-03-29T11:51:19;15.90;99.90
20750;DHT22;10535;50.664;4.564;2024-03-29T11:53:47;15.60;99.90
20750;DHT22;10535;50.664;4.564;2024-03-29T11:56:13;15.70;99.90
20750;DHT22;10535;50.664;4.564;2024-03-29T11:58:40;15.80;99.90
20750;DHT22;10535;50.664;4.564;2024-03-29T12:01:06;15.70;99.90
20750;DHT22;10535;50.664;4.564;2024-03-29T12:03:32;15.80;99.90
20750;DHT22;10535;50.664;4.564;2024-03-29T12:05:59;16.00;99.90
20750;DHT22;10535;50.664;4.564;2024-03-29T12:08:40;16.10;99.90
20750;DHT22;10535;50.664;4.564;2024-03-29T12:11:07;16.30;99.90
20750;DHT22;10535;50.664;4.564;2024-03-29T12:13:33;16.20;99.90
20750;DHT22;10535;50.664;4.564;2024-03-29T12:16:00;16.00;99.90
20750;DHT22;10535;50.664;4.564;2024-03-29T12:18:26;15.90;99.90
20750;DHT22;10535;50.664;4.564;2024-03-29T12:20:57;16.10;99.90
20750;DHT22;10535;50.664;4.564;2024-03-29T12:23:23;16.20;99.90
20750;DHT22;10535;50.664;4.564;2024-03-29T12:25:50;16.60;99.90
20750;DHT22;10535;50.664;4.564;2024-03-29T12:28:17;16.70;99.90
20750;DHT22;10535;50.664;4.564;2024-03-29T12:30:45;17.10;99.90
20750;DHT22;10535;50.664;4.564;2024-03-29T12:33:16;17.00;99.90
20750;DHT22;10535;50.664;4.564;2024-03-29T12:35:43;16.90;99.90
20750;DHT22;10535;50.664;4.564;2024-03-29T12:38:12;16.90;99.90
20750;DHT22;10535;50.664;4.564;2024-03-29T12:40:42;17.20;99.90
20750;DHT22;10535;50.664;4.564;2024-03-29T12:43:14;17.30;99.90
20750;DHT22;10535;50.664;4.564;2024-03-29T12:45:41;17.30;99.90
20750;DHT22;10535;50.664;4.564;2024-03-29T12:48:16;17.30;99.90
20750;DHT22;10535;50.664;4.564;2024-03-29T12:50:44;17.30;99.90
20750;DHT22;10535;50.664;4.564;2024-03-29T12:53:11;17.40;99.90
20750;DHT22;10535;50.664;4.564;2024-03-29T12:55:43;17.40;99.90
20750;DHT22;10535;50.664;4.564;2024-03-29T12:58:12;17.50;99.90
20750;DHT22;10535;50.664;4.564;2024-03-29T13:00:39;17.80;99.90
20750;DHT22;10535;50.664;4.564;2024-03-29T13:03:06;17.80;99.90
20750;DHT22;10535;50.664;4.564;2024-03-29T13:05:32;17.40;99.90
20750;DHT22;10535;50.664;4.564;2024-03-29T13:08:05;17.30;99.90
20750;DHT22;10535;50.664;4.564;2024-03-29T13:10:32;17.10;99.90
20750;DHT22;10535;50.664;4.564;2024-03-29T13:12:58;16.90;99.90
20750;DHT22;10535;50.664;4.564;2024-03-29T13:15:25;17.00;99.90
20750;DHT22;10535;50.664;4.564;2024-03-29T13:17:52;16.90;99.90
20750;DHT22;10535;50.664;4.564;2024-03-29T13:20:18;17.00;99.90
20750;DHT22;10535;50.664;4.564;2024-03-29T13:22:48;17.10;99.90
20750;DHT22;10535;50.664;4.564;2024-03-29T13:25:19;17.20;99.90
20750;DHT22;10535;50.664;4.564;2024-03-29T13:27:46;17.20;99.90
20750;DHT22;10535;50.664;4.564;2024-03-29T13:30:13;17.20;99.90
20750;DHT22;10535;50.664;4.564;2024-03-29T13:32:40;17.20;99.90
20750;DHT22;10535;50.664;4.564;2024-03-29T13:35:07;17.10;99.90
20750;DHT22;10535;50.664;4.564;2024-03-29T13:37:44;17.20;99.90
20750;DHT22;10535;50.664;4.564;2024-03-29T13:40:18;17.40;99.90
20750;DHT22;10535;50.664;4.564;2024-03-29T13:42:44;17.70;99.90
20750;DHT22;10535;50.664;4.564;2024-03-29T13:45:10;17.90;99.90
20750;DHT22;10535;50.664;4.564;2024-03-29T13:47:42;17.90;99.90
20750;DHT22;10535;50.664;4.564;2024-03-29T13:50:09;18.00;99.90
20750;DHT22;10535;50.664;4.564;2024-03-29T13:52:35;17.70;99.90
20750;DHT22;10535;50.664;4.564;2024-03-29T13:55:02;17.30;99.90
20750;DHT22;10535;50.664;4.564;2024-03-29T13:57:31;17.40;99.90
20750;DHT22;10535;50.664;4.564;2024-03-29T13:59:58;17.40;99.90
20750;DHT22;10535;50.664;4.564;2024-03-29T14:02:28;17.40;99.90
20750;DHT22;10535;50.664;4.564;2024-03-29T14:04:54;17.40;99.90
20750;DHT22;10535;50.664;4.564;2024-03-29T14:07:21;17.50;99.90
20750;DHT22;10535;50.664;4.564;2024-03-29T14:09:47;17.30;99.90
20750;DHT22;10535;50.664;4.564;2024-03-29T14:12:13;16.80;99.90
20750;DHT22;10535;50.664;4.564;2024-03-29T14:14:40;16.80;99.90
20750;DHT22;10535;50.664;4.564;2024-03-29T14:17:09;16.80;99.90
20750;DHT22;10535;50.664;4.564;2024-03-29T14:19:35;16.90;99.90
20750;DHT22;10535;50.664;4.564;2024-03-29T14:22:02;16.90;99.90
20750;DHT22;10535;50.664;4.564;2024-03-29T14:24:28;17.20;99.90
20750;DHT22;10535;50.664;4.564;2024-03-29T14:26:59;17.50;99.90
20750;DHT22;10535;50.664;4.564;2024-03-29T14:29:24;17.60;99.90
20750;DHT22;10535;50.664;4.564;2024-03-29T14:31:51;17.60;99.90
20750;DHT22;10535;50.664;4.564;2024-03-29T14:34:17;17.50;99.90
20750;DHT22;10535;50.664;4.564;2024-03-29T14:36:43;17.50;99.90
20750;DHT22;10535;50.664;4.564;2024-03-29T14:39:09;17.50;99.90
20750;DHT22;10535;50.664;4.564;2024-03-29T14:41:38;17.60;99.90
20750;DHT22;10535;50.664;4.564;2024-03-29T14:44:06;17.60;99.90
20750;DHT22;10535;50.664;4.564;2024-03-29T14:46:35;17.60;99.90
20750;DHT22;10535;50.664;4.564;2024-03-29T14:49:01;17.50;99.90
20750;DHT22;10535;50.664;4.564;2024-03-29T14:51:34;17.60;99.90
20750;DHT22;10535;50.664;4.564;2024-03-29T14:54:00;17.50;99.90
20750;DHT22;10535;50.664;4.564;2024-03-29T14:56:33;17.70;99.90
20750;DHT22;10535;50.664;4.564;2024-03-29T14:59:06;17.40;99.90
20750;DHT22;10535;50.664;4.564;2024-03-29T15:01:35;17.20;99.90
20750;DHT22;10535;50.664;4.564;2024-03-29T15:04:01;17.20;99.90
20750;DHT22;10535;50.664;4.564;2024-03-29T15:06:26;17.00;99.90
20750;DHT22;10535;50.664;4.564;2024-03-29T15:08:53;16.80;99.90
20750;DHT22;10535;50.664;4.564;2024-03-29T15:11:19;16.50;99.90
20750;DHT22;10535;50.664;4.564;2024-03-29T15:13:45;16.40;99.90
20750;DHT22;10535;50.664;4.564;2024-03-29T15:16:12;16.40;99.90
20750;DHT22;10535;50.664;4.564;2024-03-29T15:18:38;16.50;99.90
20750;DHT22;10535;50.664;4.564;2024-03-29T15:21:04;16.40;99.90
20750;DHT22;10535;50.664;4.564;2024-03-29T15:23:30;16.40;99.90
20750;DHT22;10535;50.664;4.564;2024-03-29T15:25:58;16.30;99.90
20750;DHT22;10535;50.664;4.564;2024-03-29T15:28:26;16.20;99.90
20750;DHT22;10535;50.664;4.564;2024-03-29T15:31:17;16.50;99.90
20750;DHT22;10535;50.664;4.564;2024-03-29T15:33:45;16.50;99.90
20750;DHT22;10535;50.664;4.564;2024-03-29T15:36:14;16.60;99.90
20750;DHT22;10535;50.664;4.564;2024-03-29T15:39:13;16.50;99.90